Time;durP1;ratioP1;P1;durP2;ratioP2;P2;SDS_P1;SDS_P2;PMS_P1;PMS_P2;Temp;Humidity;BMP_temperature;BMP_pressure;BME280_temperature;BME280_humidity;BME280_pressure;Samples;Min_cycle;Max_cycle;Signal;HPM_P1;HPM_P2
2023/01/06 00:00:17;;;;;;;4.65;1.50;;;9.90;99.90;;;;;;6303866;22;20062;-79
2023/01/06 00:02:44;;;;;;;3.22;1.05;;;10.00;99.90;;;;;;6303381;22;20007;-79
2023/01/06 00:05:10;;;;;;;2.75;1.10;;;10.00;99.90;;;;;;6300535;22;20015;-78
2023/01/06 00:07:36;;;;;;;1.80;0.85;;;10.00;99.90;;;;;;6302112;22;20041;-79
2023/01/06 00:10:01;;;;;;;4.78;0.80;;;9.90;99.90;;;;;;6302838;22;20502;-79
2023/01/06 00:12:27;;;;;;;2.35;0.60;;;9.90;99.90;;;;;;6276600;22;20052;-79
2023/01/06 00:14:54;;;;;;;3.65;0.90;;;9.80;99.90;;;;;;6301684;22;20474;-79
2023/01/06 00:17:20;;;;;;;2.17;0.85;;;9.70;99.90;;;;;;6251011;22;20429;-79
2023/01/06 00:19:46;;;;;;;2.88;0.77;;;9.70;99.90;;;;;;6303194;22;20009;-78
2023/01/06 00:22:11;;;;;;;3.38;1.00;;;9.60;99.90;;;;;;6301547;22;20003;-79
2023/01/06 00:24:37;;;;;;;5.20;1.08;;;9.70;99.90;;;;;;6275682;22;19999;-79
2023/01/06 00:27:02;;;;;;;3.55;0.95;;;9.70;99.90;;;;;;6301376;22;20040;-80
2023/01/06 00:29:29;;;;;;;2.53;1.40;;;9.80;99.90;;;;;;6276633;22;20056;-79
2023/01/06 00:31:54;;;;;;;3.17;1.38;;;9.90;99.90;;;;;;6275525;22;20379;-79
2023/01/06 00:34:20;;;;;;;6.32;1.10;;;9.90;99.90;;;;;;6275127;22;20022;-79
2023/01/06 00:36:46;;;;;;;3.50;0.90;;;9.80;99.90;;;;;;6276102;22;20003;-79
2023/01/06 00:39:12;;;;;;;4.93;0.68;;;9.90;99.90;;;;;;6275738;22;20086;-79
2023/01/06 00:44:24;;;;;;;2.90;0.80;;;9.90;99.90;;;;;;6276045;22;20165;-79
2023/01/06 00:46:50;;;;;;;3.88;0.80;;;9.80;99.90;;;;;;6249619;22;20147;-79
2023/01/06 00:49:16;;;;;;;5.90;0.80;;;9.80;99.90;;;;;;6249636;22;20026;-79
2023/01/06 00:51:42;;;;;;;2.08;0.40;;;9.90;99.90;;;;;;6301854;22;20007;-79
2023/01/06 00:54:10;;;;;;;1.38;0.52;;;9.90;99.90;;;;;;6249461;22;20478;-78
2023/01/06 00:56:38;;;;;;;2.33;0.70;;;9.90;99.90;;;;;;6275373;22;20015;-79
2023/01/06 00:59:05;;;;;;;4.63;0.80;;;9.90;99.90;;;;;;6275132;22;20094;-79
2023/01/06 01:01:32;;;;;;;4.35;0.90;;;10.00;99.90;;;;;;6275290;22;20325;-78
2023/01/06 01:03:58;;;;;;;5.65;0.90;;;10.00;99.90;;;;;;6249135;22;20018;-79
2023/01/06 01:06:24;;;;;;;3.25;1.10;;;10.00;99.90;;;;;;6275851;22;20003;-81
2023/01/06 01:08:58;;;;;;;3.55;0.95;;;10.00;99.90;;;;;;6275236;22;20011;-80
2023/01/06 01:14:09;;;;;;;2.72;1.10;;;10.10;99.90;;;;;;6274003;22;20018;-79
2023/01/06 01:16:35;;;;;;;5.38;1.10;;;10.10;99.90;;;;;;6249368;22;20010;-80
2023/01/06 01:19:01;;;;;;;2.63;0.93;;;10.10;99.90;;;;;;6275019;22;20011;-78
2023/01/06 01:21:28;;;;;;;3.67;1.30;;;10.10;99.90;;;;;;6275511;22;20339;-78
2023/01/06 01:23:54;;;;;;;5.00;1.23;;;10.10;99.90;;;;;;6275037;22;20122;-79
2023/01/06 01:26:19;;;;;;;3.40;1.75;;;10.10;99.90;;;;;;6275431;22;20027;-79
2023/01/06 01:28:45;;;;;;;4.30;0.98;;;10.10;99.90;;;;;;6275656;22;20085;-79
2023/01/06 01:31:12;;;;;;;3.67;1.27;;;10.10;99.90;;;;;;6249222;22;20003;-79
2023/01/06 01:33:38;;;;;;;4.57;1.50;;;10.10;99.90;;;;;;6302869;22;20092;-79
2023/01/06 01:36:09;;;;;;;5.40;1.00;;;10.10;99.90;;;;;;6300832;22;20096;-78
2023/01/06 01:38:35;;;;;;;3.65;1.35;;;10.10;99.90;;;;;;6250033;22;20436;-80
2023/01/06 01:41:01;;;;;;;4.68;1.33;;;10.20;99.90;;;;;;6275083;22;20058;-80
2023/01/06 01:43:48;;;;;;;3.58;1.40;;;10.10;99.90;;;;;;6274967;22;20206;-79
2023/01/06 01:46:18;;;;;;;5.38;1.30;;;10.20;99.90;;;;;;6249109;22;20015;-80
2023/01/06 01:48:44;;;;;;;;;;;10.20;99.90;;;;;;6276235;22;20440;-80
2023/01/06 01:51:15;;;;;;;3.97;1.15;;;10.20;99.90;;;;;;6302535;22;19933;-80
2023/01/06 01:53:49;;;;;;;2.88;1.02;;;10.20;99.90;;;;;;6275230;22;20019;-81
2023/01/06 01:56:31;;;;;;;3.45;1.55;;;10.20;99.90;;;;;;6275436;22;20015;-80
2023/01/06 01:59:18;;;;;;;4.32;1.27;;;10.20;99.90;;;;;;6275028;22;20041;-80
2023/01/06 02:01:44;;;;;;;6.03;1.35;;;10.10;99.90;;;;;;6274864;22;20098;-80
2023/01/06 02:04:10;;;;;;;5.43;1.35;;;10.20;99.90;;;;;;6302274;22;19999;-81
2023/01/06 02:06:39;;;;;;;2.63;1.10;;;10.20;99.90;;;;;;6300894;22;20007;-81
2023/01/06 02:09:15;;;;;;;3.22;0.90;;;10.20;99.90;;;;;;6302303;22;20011;-81
2023/01/06 02:11:44;;;;;;;4.00;0.90;;;10.20;99.90;;;;;;6250074;22;20043;-80
2023/01/06 02:14:16;;;;;;;4.20;1.13;;;10.20;99.90;;;;;;6273983;22;20462;-79
2023/01/06 02:16:53;;;;;;;2.63;0.70;;;10.30;99.90;;;;;;6249703;22;20010;-79
2023/01/06 02:19:22;;;;;;;4.07;0.70;;;10.20;99.90;;;;;;6301136;22;20015;-80
2023/01/06 02:22:13;;;;;;;3.33;0.80;;;10.20;99.90;;;;;;6274983;22;20008;-80
2023/01/06 02:25:09;;;;;;;2.25;0.60;;;10.10;99.90;;;;;;6275405;22;20495;-80
2023/01/06 02:28:04;;;;;;;2.25;0.52;;;10.10;99.90;;;;;;6250064;22;20030;-78
2023/01/06 02:31:07;;;;;;;2.22;0.70;;;10.20;99.90;;;;;;6251535;22;20304;-79
2023/01/06 02:33:48;;;;;;;2.67;0.50;;;10.20;99.90;;;;;;6277497;22;20447;-80
2023/01/06 02:36:52;;;;;;;2.72;0.60;;;10.10;99.90;;;;;;6277425;22;20011;-79
2023/01/06 02:39:36;;;;;;;2.60;0.50;;;10.10;99.90;;;;;;6304637;22;20003;-80
2023/01/06 02:42:41;;;;;;;3.53;0.60;;;10.10;99.90;;;;;;6251365;22;20094;-80
2023/01/06 02:45:22;;;;;;;1.73;0.40;;;10.10;99.90;;;;;;6250535;22;20496;-80
2023/01/06 02:47:51;;;;;;;1.92;0.40;;;10.10;99.90;;;;;;6276958;22;20335;-80
2023/01/06 02:50:20;;;;;;;2.28;0.50;;;10.10;99.90;;;;;;6277123;22;20035;-79
2023/01/06 02:53:07;;;;;;;1.13;0.40;;;10.00;99.90;;;;;;6251401;22;20022;-80
2023/01/06 02:55:38;;;;;;;2.65;0.40;;;10.00;99.90;;;;;;6251599;22;20015;-80
2023/01/06 02:58:26;;;;;;;1.73;0.47;;;10.10;99.90;;;;;;6250818;22;20011;-80
2023/01/06 03:01:00;;;;;;;2.00;0.40;;;10.10;99.90;;;;;;6251135;22;20007;-80
2023/01/06 03:03:32;;;;;;;1.63;0.35;;;10.00;99.90;;;;;;6252086;22;20432;-80
2023/01/06 03:06:05;;;;;;;1.90;0.30;;;10.00;99.90;;;;;;6303054;22;20471;-80
2023/01/06 03:08:32;;;;;;;2.15;0.30;;;10.00;99.90;;;;;;6251360;22;20064;-80
2023/01/06 03:11:00;;;;;;;2.53;0.30;;;10.00;99.90;;;;;;6251162;22;20008;-80
2023/01/06 03:13:32;;;;;;;2.47;0.40;;;10.00;99.90;;;;;;6276042;22;20042;-80
2023/01/06 03:15:59;;;;;;;1.20;0.40;;;10.00;99.90;;;;;;6276382;22;20004;-80
2023/01/06 03:18:25;;;;;;;2.13;0.40;;;10.00;99.90;;;;;;6251055;22;20019;-79
2023/01/06 03:20:56;;;;;;;1.75;0.50;;;10.00;99.90;;;;;;6276099;22;20004;-80
2023/01/06 03:23:22;;;;;;;3.35;0.50;;;9.90;99.90;;;;;;6251332;22;20007;-80
2023/01/06 03:25:49;;;;;;;2.53;0.47;;;10.00;99.90;;;;;;6250745;22;20004;-80
2023/01/06 03:28:14;;;;;;;1.60;0.50;;;10.00;99.90;;;;;;6276363;22;20015;-79
2023/01/06 03:31:04;;;;;;;1.30;0.30;;;10.00;99.90;;;;;;6302290;22;20455;-79
2023/01/06 03:33:36;;;;;;;;;;;10.00;99.90;;;;;;6251400;22;20094;-79
2023/01/06 03:36:10;;;;;;;1.85;0.30;;;10.00;99.90;;;;;;6276105;22;19994;-79
2023/01/06 03:39:08;;;;;;;2.03;0.30;;;10.10;99.90;;;;;;6251216;22;20018;-79
2023/01/06 03:44:33;;;;;;;1.13;0.30;;;10.00;99.90;;;;;;6276461;22;20305;-79
2023/01/06 03:47:05;;;;;;;0.88;0.30;;;10.00;99.90;;;;;;6275856;22;20010;-79
2023/01/06 03:49:36;;;;;;;2.83;0.30;;;10.00;99.90;;;;;;6276722;22;20011;-79
2023/01/06 03:52:26;;;;;;;1.60;0.20;;;10.10;99.90;;;;;;6250233;22;20011;-79
2023/01/06 03:55:01;;;;;;;3.53;0.30;;;10.00;99.90;;;;;;6275485;22;20015;-78
2023/01/06 03:57:33;;;;;;;2.42;0.20;;;10.00;99.90;;;;;;6303301;22;20004;-79
2023/01/06 04:00:08;;;;;;;2.33;0.20;;;10.10;99.90;;;;;;6275861;22;20136;-79
2023/01/06 04:02:40;;;;;;;2.58;0.28;;;10.10;99.90;;;;;;6277667;22;20336;-79
2023/01/06 04:05:17;;;;;;;1.35;0.20;;;10.00;99.90;;;;;;6276096;22;20015;-78
2023/01/06 04:07:45;;;;;;;1.02;0.10;;;10.00;99.90;;;;;;6250922;22;20500;-79
2023/01/06 04:10:14;;;;;;;2.92;0.20;;;10.00;99.90;;;;;;6250068;22;20470;-78
2023/01/06 04:12:40;;;;;;;1.80;0.30;;;10.10;99.90;;;;;;6275048;22;20007;-78
2023/01/06 04:15:21;;;;;;;1.67;0.17;;;10.10;99.90;;;;;;6300153;22;20018;-79
2023/01/06 04:17:49;;;;;;;1.65;0.40;;;10.00;99.90;;;;;;6250505;22;20014;-79
2023/01/06 04:20:19;;;;;;;1.73;0.30;;;10.00;99.90;;;;;;6276474;22;20157;-79
2023/01/06 04:22:47;;;;;;;2.15;0.40;;;10.10;99.90;;;;;;6276267;22;20007;-79
2023/01/06 04:25:13;;;;;;;3.83;0.60;;;10.10;99.90;;;;;;6275563;22;20472;-79
2023/01/06 04:27:39;;;;;;;2.80;0.50;;;10.10;99.90;;;;;;6275644;22;20003;-79
2023/01/06 04:30:05;;;;;;;1.13;0.30;;;10.10;99.90;;;;;;6302926;22;20010;-78
2023/01/06 04:32:32;;;;;;;1.77;0.40;;;10.10;99.90;;;;;;6250698;22;20339;-79
2023/01/06 04:34:58;;;;;;;1.77;0.30;;;10.10;99.90;;;;;;6250284;22;20019;-79
2023/01/06 04:37:25;;;;;;;0.63;0.15;;;10.10;99.90;;;;;;6303929;22;20064;-78
2023/01/06 04:39:50;;;;;;;2.53;0.30;;;10.10;99.90;;;;;;6302706;22;20078;-80
2023/01/06 04:42:16;;;;;;;1.73;0.30;;;10.10;99.90;;;;;;6303482;22;20008;-79
2023/01/06 04:44:41;;;;;;;2.03;0.30;;;10.10;99.90;;;;;;6250785;22;19996;-79
2023/01/06 04:47:09;;;;;;;1.58;0.40;;;10.10;99.90;;;;;;6301980;22;20038;-81
2023/01/06 04:49:34;;;;;;;2.90;0.40;;;10.10;99.90;;;;;;6303821;22;20018;-81
2023/01/06 04:52:00;;;;;;;2.33;0.40;;;10.10;99.90;;;;;;6275552;22;20012;-79
2023/01/06 04:54:26;;;;;;;1.27;0.20;;;10.10;99.90;;;;;;6275592;22;20019;-81
2023/01/06 04:56:51;;;;;;;0.63;0.20;;;10.10;99.90;;;;;;6275557;22;20541;-78
2023/01/06 04:59:17;;;;;;;2.30;0.20;;;10.10;99.90;;;;;;6302308;22;20000;-79
2023/01/06 05:01:43;;;;;;;1.83;0.20;;;10.10;99.90;;;;;;6303642;22;20042;-79
2023/01/06 05:04:08;;;;;;;1.13;0.20;;;10.10;99.90;;;;;;6275430;22;20014;-79
2023/01/06 05:06:34;;;;;;;2.15;0.20;;;10.10;99.90;;;;;;6275953;22;20519;-78
2023/01/06 05:09:00;;;;;;;2.17;0.30;;;10.10;99.90;;;;;;6249713;22;20081;-78
2023/01/06 05:11:26;;;;;;;4.28;0.30;;;10.10;99.90;;;;;;6275831;22;20367;-78
2023/01/06 05:13:53;;;;;;;0.60;0.10;;;10.10;99.90;;;;;;6274892;22;20015;-79
2023/01/06 05:16:33;;;;;;;2.35;0.52;;;10.10;99.90;;;;;;6303285;22;20420;-79
2023/01/06 05:18:59;;;;;;;1.30;0.15;;;10.10;99.90;;;;;;6302605;22;20034;-79
2023/01/06 05:21:27;;;;;;;0.93;0.20;;;10.10;99.90;;;;;;6275940;22;20440;-79
2023/01/06 05:23:53;;;;;;;1.00;0.20;;;10.10;99.90;;;;;;6274894;22;20007;-80
2023/01/06 05:26:21;;;;;;;0.70;0.20;;;10.10;99.90;;;;;;6275732;22;20085;-79
2023/01/06 05:28:47;;;;;;;2.33;0.22;;;10.10;99.90;;;;;;6276049;22;19996;-79
2023/01/06 05:31:13;;;;;;;1.65;0.30;;;10.10;99.90;;;;;;6275307;22;20068;-80
2023/01/06 05:33:39;;;;;;;2.58;0.30;;;10.10;99.90;;;;;;6303108;22;20019;-80
2023/01/06 05:36:14;;;;;;;2.10;0.20;;;10.10;99.90;;;;;;6300728;22;20004;-81
2023/01/06 05:38:40;;;;;;;1.73;0.40;;;10.20;99.90;;;;;;6275302;22;20395;-80
2023/01/06 05:41:06;;;;;;;2.25;0.20;;;10.10;99.90;;;;;;6249742;22;20324;-80
2023/01/06 05:43:33;;;;;;;1.13;0.30;;;10.10;99.90;;;;;;6301630;22;20008;-80
2023/01/06 05:46:07;;;;;;;0.50;0.20;;;10.20;99.90;;;;;;6302749;22;20003;-80
2023/01/06 05:48:34;;;;;;;1.75;0.30;;;10.20;99.90;;;;;;6303170;22;20520;-80
2023/01/06 05:51:01;;;;;;;1.23;0.20;;;10.20;99.90;;;;;;6300955;22;20003;-80
2023/01/06 05:53:30;;;;;;;0.93;0.20;;;10.20;99.90;;;;;;6275198;22;20093;-80
2023/01/06 05:56:04;;;;;;;1.30;0.30;;;10.20;99.90;;;;;;6249730;22;20013;-80
2023/01/06 05:58:32;;;;;;;0.43;0.13;;;10.20;99.90;;;;;;6249277;22;20015;-79
2023/01/06 06:00:58;;;;;;;1.70;0.20;;;10.20;99.90;;;;;;6274961;22;20078;-80
2023/01/06 06:03:24;;;;;;;1.38;0.20;;;10.20;99.90;;;;;;6275024;22;20010;-80
2023/01/06 06:05:49;;;;;;;1.25;0.20;;;10.20;99.90;;;;;;6302061;22;19999;-79
2023/01/06 06:08:15;;;;;;;0.88;0.10;;;10.20;99.90;;;;;;6299943;22;19999;-79
2023/01/06 06:10:41;;;;;;;0.85;0.20;;;10.20;99.90;;;;;;6301443;22;20447;-79
2023/01/06 06:13:06;;;;;;;1.80;0.13;;;10.30;99.90;;;;;;6274928;22;20007;-80
2023/01/06 06:15:32;;;;;;;0.95;0.20;;;10.20;99.90;;;;;;6274660;22;20011;-80
2023/01/06 06:17:59;;;;;;;1.63;0.20;;;10.20;99.90;;;;;;6300796;22;19996;-80
2023/01/06 06:20:25;;;;;;;0.57;0.10;;;10.30;99.90;;;;;;6274614;22;20007;-80
2023/01/06 06:22:51;;;;;;;1.33;0.10;;;10.30;99.90;;;;;;6274300;22;20014;-79
2023/01/06 06:25:16;;;;;;;0.70;0.10;;;10.30;99.90;;;;;;6301168;22;20389;-79
2023/01/06 06:27:42;;;;;;;2.15;0.17;;;10.30;99.90;;;;;;6300919;22;20450;-79
2023/01/06 06:30:08;;;;;;;0.70;0.15;;;10.30;99.90;;;;;;6274860;22;20506;-79
2023/01/06 06:32:33;;;;;;;0.93;0.10;;;10.20;99.90;;;;;;6300104;22;20022;-80
2023/01/06 06:34:59;;;;;;;0.90;0.20;;;10.20;99.90;;;;;;6301435;22;20015;-78
2023/01/06 06:37:25;;;;;;;0.57;0.20;;;10.20;99.90;;;;;;6301510;22;20007;-79
2023/01/06 06:39:50;;;;;;;1.05;0.20;;;10.10;99.90;;;;;;6273957;22;20436;-78
2023/01/06 06:42:16;;;;;;;0.55;0.20;;;10.10;99.90;;;;;;6274465;22;20007;-79
2023/01/06 06:44:42;;;;;;;0.52;0.10;;;10.10;99.90;;;;;;6274628;22;20000;-79
2023/01/06 06:47:07;;;;;;;0.63;0.10;;;10.10;99.90;;;;;;6274071;22;20086;-78
2023/01/06 06:49:33;;;;;;;0.65;0.10;;;10.10;99.90;;;;;;6274090;22;20012;-78
2023/01/06 06:51:59;;;;;;;0.82;0.13;;;10.10;99.90;;;;;;6273843;22;20016;-79
2023/01/06 06:54:24;;;;;;;0.52;0.10;;;10.10;99.90;;;;;;6300096;22;20370;-79
2023/01/06 06:56:50;;;;;;;0.70;0.10;;;10.10;99.90;;;;;;6301753;22;20459;-80
2023/01/06 06:59:16;;;;;;;0.73;0.20;;;10.10;99.90;;;;;;6274774;22;20030;-80
2023/01/06 07:01:41;;;;;;;1.17;0.10;;;10.10;99.90;;;;;;6274471;22;20010;-78
2023/01/06 07:04:07;;;;;;;0.95;0.30;;;10.10;99.90;;;;;;6299914;22;20469;-79
2023/01/06 07:06:34;;;;;;;1.15;0.20;;;10.20;99.90;;;;;;6274604;22;20085;-78
2023/01/06 07:08:59;;;;;;;0.90;0.20;;;10.20;99.90;;;;;;6302761;22;20320;-79
2023/01/06 07:11:25;;;;;;;0.95;0.20;;;10.20;99.90;;;;;;6274338;22;20211;-79
2023/01/06 07:13:51;;;;;;;1.50;0.20;;;10.20;99.90;;;;;;6273803;22;20072;-81
2023/01/06 07:16:18;;;;;;;0.50;0.20;;;10.20;99.90;;;;;;6302820;22;20007;-78
2023/01/06 07:18:44;;;;;;;1.02;0.20;;;10.20;99.90;;;;;;6276273;22;20078;-79
2023/01/06 07:21:10;;;;;;;1.88;0.20;;;10.20;99.90;;;;;;6302019;22;20027;-79
2023/01/06 07:23:36;;;;;;;1.77;0.25;;;10.20;99.90;;;;;;6302130;22;20310;-78
2023/01/06 07:26:02;;;;;;;1.88;0.30;;;10.20;99.90;;;;;;6276045;22;20049;-79
2023/01/06 07:28:31;;;;;;;1.30;0.28;;;10.20;99.90;;;;;;6276635;22;20041;-80
2023/01/06 07:30:56;;;;;;;1.00;0.40;;;10.20;99.90;;;;;;6303518;22;20013;-79
2023/01/06 07:33:22;;;;;;;1.95;0.40;;;10.10;99.90;;;;;;6275718;22;20432;-79
2023/01/06 07:35:52;;;;;;;3.22;0.50;;;10.10;99.90;;;;;;6275737;22;20003;-79
2023/01/06 07:38:18;;;;;;;1.05;0.40;;;10.20;99.90;;;;;;6275901;22;20022;-79
2023/01/06 07:40:44;;;;;;;1.17;0.30;;;10.20;99.90;;;;;;6276339;22;20011;-79
2023/01/06 07:43:10;;;;;;;0.70;0.30;;;10.10;99.90;;;;;;6301664;22;20002;-78
2023/01/06 07:45:36;;;;;;;0.70;0.25;;;10.10;99.90;;;;;;6276154;22;20017;-78
2023/01/06 07:48:03;;;;;;;2.00;0.30;;;10.10;99.90;;;;;;6275479;22;20511;-79
2023/01/06 07:50:29;;;;;;;1.55;0.30;;;10.10;99.90;;;;;;6276124;22;20011;-79
2023/01/06 07:52:59;;;;;;;1.20;0.30;;;10.10;99.90;;;;;;6302594;22;20010;-79
2023/01/06 07:55:25;;;;;;;1.15;0.40;;;10.10;99.90;;;;;;6275971;22;20094;-79
2023/01/06 07:57:51;;;;;;;1.23;0.30;;;10.20;99.90;;;;;;6275662;22;20046;-78
2023/01/06 08:00:17;;;;;;;1.58;0.60;;;10.10;99.90;;;;;;6303086;22;20011;-79
2023/01/06 08:02:42;;;;;;;1.40;0.50;;;10.10;99.90;;;;;;6302952;22;20100;-79
2023/01/06 08:05:08;;;;;;;1.42;0.45;;;10.10;99.90;;;;;;6275698;22;20079;-78
2023/01/06 08:07:34;;;;;;;0.95;0.40;;;10.10;99.90;;;;;;6303084;22;20007;-78
2023/01/06 08:10:00;;;;;;;1.63;0.50;;;10.10;99.90;;;;;;6301933;22;19999;-79
2023/01/06 08:12:25;;;;;;;1.10;0.50;;;10.00;99.90;;;;;;6275548;22;20027;-79
2023/01/06 08:14:51;;;;;;;0.88;0.40;;;10.00;99.90;;;;;;6302827;22;20015;-79
2023/01/06 08:17:16;;;;;;;1.80;0.47;;;10.00;99.90;;;;;;6303134;22;19999;-79
2023/01/06 08:19:42;;;;;;;0.93;0.30;;;10.00;99.90;;;;;;6276055;22;20011;-79
2023/01/06 08:22:08;;;;;;;0.77;0.38;;;10.00;99.90;;;;;;6300854;22;20140;-79
2023/01/06 08:24:34;;;;;;;1.35;0.50;;;10.00;99.90;;;;;;6302579;22;20050;-79
2023/01/06 08:27:00;;;;;;;2.38;0.60;;;10.00;99.90;;;;;;6302325;22;20135;-80
2023/01/06 08:29:26;;;;;;;1.60;0.60;;;10.00;99.90;;;;;;6275399;22;20094;-81
2023/01/06 08:31:52;;;;;;;1.85;0.60;;;9.90;99.90;;;;;;6249001;22;20011;-80
2023/01/06 08:34:17;;;;;;;1.10;0.60;;;9.90;99.90;;;;;;6275374;22;20015;-80
2023/01/06 08:36:44;;;;;;;2.30;0.90;;;10.00;99.90;;;;;;6302384;22;19999;-80
2023/01/06 08:39:12;;;;;;;1.95;1.08;;;10.00;99.90;;;;;;6249888;22;20090;-79
2023/01/06 08:41:38;;;;;;;3.25;1.80;;;10.00;99.90;;;;;;6249642;22;20012;-79
2023/01/06 08:44:05;;;;;;;2.10;1.10;;;10.00;99.90;;;;;;6300940;22;20617;-82
2023/01/06 08:46:31;;;;;;;1.77;1.00;;;9.90;99.90;;;;;;6247658;22;20014;-78
2023/01/06 08:48:57;;;;;;;2.72;1.65;;;10.00;99.90;;;;;;6272845;22;20010;-79
2023/01/06 08:51:24;;;;;;;3.55;1.42;;;10.00;99.90;;;;;;6248155;22;20168;-79
2023/01/06 08:53:50;;;;;;;3.65;1.45;;;10.00;99.90;;;;;;6248973;22;20060;-78
2023/01/06 08:56:20;;;;;;;2.30;1.10;;;10.10;99.90;;;;;;6274430;22;20094;-79
2023/01/06 08:58:51;;;;;;;1.95;1.02;;;10.10;99.90;;;;;;6275159;22;20015;-79
2023/01/06 09:01:19;;;;;;;2.10;1.58;;;10.10;99.90;;;;;;6274505;22;20332;-79
2023/01/06 09:03:45;;;;;;;2.53;1.75;;;10.10;99.90;;;;;;6249195;22;20748;-78
2023/01/06 09:06:11;;;;;;;2.92;1.67;;;10.10;99.90;;;;;;6274577;22;20141;-79
2023/01/06 09:08:36;;;;;;;2.97;2.00;;;10.10;99.90;;;;;;6249594;22;20492;-77
2023/01/06 09:11:07;;;;;;;3.03;1.77;;;10.10;99.90;;;;;;6274696;22;20007;-79
2023/01/06 09:13:34;;;;;;;2.72;1.27;;;10.10;99.90;;;;;;6274328;22;20023;-78
2023/01/06 09:16:01;;;;;;;2.42;1.58;;;10.10;99.90;;;;;;6301531;22;20074;-78
2023/01/06 09:18:26;;;;;;;2.20;1.55;;;10.10;99.90;;;;;;6274767;22;20004;-78
2023/01/06 09:20:52;;;;;;;2.47;1.60;;;10.10;99.90;;;;;;6249386;22;20109;-77
2023/01/06 09:23:19;;;;;;;3.65;1.83;;;10.20;99.90;;;;;;6274740;22;20015;-77
2023/01/06 09:25:45;;;;;;;2.05;1.20;;;10.10;99.90;;;;;;6249659;22;20007;-78
2023/01/06 09:28:11;;;;;;;3.03;1.80;;;10.10;99.90;;;;;;6249030;22;20480;-77
2023/01/06 09:30:36;;;;;;;4.95;1.58;;;10.10;99.90;;;;;;6248964;22;20006;-77
2023/01/06 09:33:02;;;;;;;2.85;1.60;;;10.10;99.90;;;;;;6274207;22;20007;-78
2023/01/06 09:35:28;;;;;;;3.35;1.20;;;10.10;99.90;;;;;;6274969;22;20007;-78
2023/01/06 09:37:54;;;;;;;2.03;1.40;;;10.10;99.90;;;;;;6248160;22;20007;-77
2023/01/06 09:40:27;;;;;;;3.42;1.38;;;10.00;99.90;;;;;;6249268;22;20097;-77
2023/01/06 09:43:14;;;;;;;4.32;1.98;;;10.10;99.90;;;;;;6274207;22;20065;-77
2023/01/06 09:45:47;;;;;;;4.55;1.75;;;10.10;99.90;;;;;;6274324;22;20039;-78
2023/01/06 09:48:17;;;;;;;2.97;1.55;;;10.10;99.90;;;;;;6249431;22;20007;-77
2023/01/06 09:50:49;;;;;;;3.75;2.00;;;10.20;99.90;;;;;;6274671;22;20018;-77
2023/01/06 09:53:39;;;;;;;3.72;2.13;;;10.30;99.90;;;;;;6301717;22;20098;-78
2023/01/06 09:56:11;;;;;;;3.05;1.77;;;10.40;99.90;;;;;;6267257;22;20144;-78
2023/01/06 09:58:48;;;;;;;7.25;2.38;;;10.60;99.90;;;;;;6273713;22;20007;-78
2023/01/06 10:01:18;;;;;;;3.45;1.33;;;10.60;99.90;;;;;;6274411;22;20011;-78
2023/01/06 10:03:46;;;;;;;6.82;2.05;;;10.70;99.90;;;;;;6248638;22;20386;-78
2023/01/06 10:06:33;;;;;;;5.00;1.02;;;10.70;99.90;;;;;;6274264;22;20015;-78
2023/01/06 10:09:17;;;;;;;4.47;1.88;;;10.70;99.90;;;;;;6274521;22;20007;-78
2023/01/06 10:12:07;;;;;;;2.70;0.90;;;10.60;99.90;;;;;;6274595;22;20014;-77
2023/01/06 10:15:09;;;;;;;3.03;1.27;;;10.60;99.90;;;;;;6273329;22;20023;-78
2023/01/06 10:18:13;;;;;;;4.63;1.10;;;10.60;99.90;;;;;;6274265;22;20014;-78
2023/01/06 10:20:58;;;;;;;4.05;1.35;;;10.50;99.90;;;;;;6248870;22;20056;-78
2023/01/06 10:23:55;;;;;;;4.28;1.30;;;10.60;99.90;;;;;;6248839;22;20011;-77
2023/01/06 10:26:31;;;;;;;3.97;0.80;;;10.50;99.90;;;;;;6301775;22;20827;-78
2023/01/06 10:29:17;;;;;;;4.15;0.90;;;10.50;99.90;;;;;;6273615;22;20132;-78
2023/01/06 10:31:44;;;;;;;2.78;0.80;;;10.50;99.90;;;;;;6301478;22;20010;-77
2023/01/06 10:34:24;;;;;;;7.38;1.13;;;10.60;99.90;;;;;;6247896;22;20119;-77
2023/01/06 10:37:16;;;;;;;2.50;0.50;;;10.60;99.90;;;;;;6274198;22;20302;-79
2023/01/06 10:39:45;;;;;;;3.60;0.50;;;10.60;99.90;;;;;;6249067;22;20090;-78
2023/01/06 10:45:12;;;;;;;2.80;0.30;;;10.70;99.90;;;;;;6301553;22;20234;-78
2023/01/06 10:47:40;;;;;;;2.08;0.30;;;10.70;99.90;;;;;;6274222;22;20003;-77
2023/01/06 10:50:06;;;;;;;2.30;0.32;;;10.70;99.90;;;;;;6302385;22;20309;-78
2023/01/06 10:52:33;;;;;;;2.65;0.30;;;10.80;99.90;;;;;;6276218;22;19999;-78
2023/01/06 10:55:04;;;;;;;1.20;0.20;;;10.80;99.90;;;;;;6302928;22;20432;-78
2023/01/06 10:57:35;;;;;;;2.97;0.30;;;10.80;99.90;;;;;;6275765;22;19999;-78
2023/01/06 11:00:16;;;;;;;1.63;0.20;;;10.80;99.90;;;;;;6276165;22;20029;-79
2023/01/06 11:02:44;;;;;;;2.55;0.20;;;10.90;99.90;;;;;;6250859;22;20053;-77
2023/01/06 11:05:16;;;;;;;4.20;0.20;;;10.80;99.90;;;;;;6250426;22;20011;-78
2023/01/06 11:08:02;;;;;;;2.88;0.20;;;10.90;99.90;;;;;;6276392;22;20019;-78
2023/01/06 11:10:33;;;;;;;2.75;0.10;;;10.90;99.90;;;;;;6249867;22;20428;-78
2023/01/06 11:13:02;;;;;;;4.72;0.63;;;10.90;99.90;;;;;;6303486;22;20007;-79
2023/01/06 11:15:48;;;;;;;1.88;0.20;;;11.00;99.90;;;;;;6250354;22;20062;-78
2023/01/06 11:18:24;;;;;;;4.43;0.20;;;11.00;99.90;;;;;;6275492;22;20011;-78
2023/01/06 11:21:09;;;;;;;7.32;0.30;;;10.90;99.90;;;;;;6275753;22;20261;-79
2023/01/06 11:23:37;;;;;;;3.35;0.20;;;10.90;99.90;;;;;;6303344;22;20033;-78
2023/01/06 11:26:11;;;;;;;2.05;0.20;;;11.00;99.90;;;;;;6249315;22;20031;-78
2023/01/06 11:28:48;;;;;;;5.20;0.20;;;10.90;99.90;;;;;;6250656;22;20007;-78
2023/01/06 11:31:16;;;;;;;2.90;0.20;;;10.80;99.90;;;;;;6275904;22;20004;-78
2023/01/06 11:33:55;;;;;;;2.60;0.10;;;10.80;99.90;;;;;;6250378;22;20470;-78
2023/01/06 11:36:27;;;;;;;4.25;0.22;;;10.80;99.90;;;;;;6303323;22;20004;-79
2023/01/06 11:39:22;;;;;;;3.58;0.20;;;10.80;99.90;;;;;;6275844;22;20007;-79
2023/01/06 11:41:51;;;;;;;4.40;0.20;;;10.70;99.90;;;;;;6275291;22;20463;-79
2023/01/06 11:44:31;;;;;;;1.52;0.10;;;10.70;99.90;;;;;;6302699;22;20444;-78
2023/01/06 11:47:19;;;;;;;5.18;0.43;;;10.70;99.90;;;;;;6301485;22;20431;-77
2023/01/06 11:49:53;;;;;;;3.90;0.10;;;10.70;99.90;;;;;;6250662;22;20003;-78
2023/01/06 11:52:30;;;;;;;2.90;0.32;;;10.80;99.90;;;;;;6250226;22;20007;-78
2023/01/06 11:55:00;;;;;;;4.68;0.40;;;10.80;99.90;;;;;;6274450;22;20351;-78
2023/01/06 11:57:35;;;;;;;4.43;0.13;;;10.80;99.90;;;;;;6249910;22;20370;-78
2023/01/06 12:00:10;;;;;;;2.25;0.20;;;10.90;99.90;;;;;;6302890;22;20428;-78
2023/01/06 12:02:56;;;;;;;5.20;0.20;;;10.90;99.90;;;;;;6302849;22;20513;-78
2023/01/06 12:05:33;;;;;;;3.45;0.20;;;11.00;99.90;;;;;;6275750;22;20018;-77
2023/01/06 12:08:02;;;;;;;6.72;0.40;;;11.00;99.90;;;;;;6275448;22;20007;-78
2023/01/06 12:10:32;;;;;;;3.50;0.20;;;11.00;99.90;;;;;;6274546;22;20007;-78
2023/01/06 12:12:57;;;;;;;1.42;0.13;;;11.00;99.90;;;;;;6275153;22;20007;-78
2023/01/06 12:15:25;;;;;;;3.30;0.22;;;10.90;99.90;;;;;;6302380;22;20291;-80
2023/01/06 12:17:56;;;;;;;5.93;0.30;;;10.90;99.90;;;;;;6275189;22;20137;-79
2023/01/06 12:20:27;;;;;;;3.90;0.20;;;11.00;99.90;;;;;;6275464;22;20077;-79
2023/01/06 12:22:57;;;;;;;1.77;0.20;;;11.00;99.90;;;;;;6274733;22;20088;-78
2023/01/06 12:25:28;;;;;;;;;;;11.10;99.90;;;;;;6275990;22;20456;-79
2023/01/06 12:28:00;;;;;;;4.05;0.28;;;11.20;99.90;;;;;;6274886;22;19903;-78
2023/01/06 12:30:33;;;;;;;4.10;0.82;;;11.10;99.90;;;;;;6249817;22;20091;-79
2023/01/06 12:33:29;;;;;;;4.97;0.30;;;11.20;99.90;;;;;;6274750;22;20012;-79
2023/01/06 12:35:59;;;;;;;1.58;0.20;;;11.30;99.90;;;;;;6240218;22;20090;-79
2023/01/06 12:38:53;;;;;;;3.30;0.63;;;11.40;99.90;;;;;;6275114;22;20003;-78
2023/01/06 12:41:35;;;;;;;3.67;0.20;;;11.40;99.90;;;;;;6275008;22;20007;-78
2023/01/06 12:44:19;;;;;;;3.08;0.47;;;11.50;99.90;;;;;;6301117;22;20014;-79
2023/01/06 12:46:54;;;;;;;3.00;0.20;;;11.60;99.90;;;;;;6275227;22;20007;-79
2023/01/06 12:49:39;;;;;;;1.13;0.10;;;11.60;99.90;;;;;;6302163;22;20405;-78
2023/01/06 12:52:11;;;;;;;2.17;0.25;;;11.60;99.90;;;;;;6283765;22;20049;-80
2023/01/06 12:54:37;;;;;;;3.35;0.20;;;11.70;99.90;;;;;;6234333;22;20058;-79
2023/01/06 12:57:15;;;;;;;1.52;0.20;;;11.70;99.90;;;;;;6262005;22;20558;-78
2023/01/06 12:59:56;;;;;;;0.65;0.10;;;11.70;99.90;;;;;;6235979;22;20015;-80
2023/01/06 13:02:34;;;;;;;1.20;0.10;;;11.70;99.90;;;;;;6260426;22;20468;-78
2023/01/06 13:05:18;;;;;;;3.28;0.10;;;11.60;99.90;;;;;;6234236;22;20398;-78
2023/01/06 13:08:01;;;;;;;1.25;0.10;;;11.60;99.90;;;;;;6234786;22;20011;-79
2023/01/06 13:10:36;;;;;;;3.05;0.10;;;11.60;99.90;;;;;;6261021;22;20340;-80
2023/01/06 13:13:27;;;;;;;1.30;0.10;;;11.60;99.90;;;;;;6234526;22;20015;-79
2023/01/06 13:15:53;;;;;;;;;;;11.60;99.90;;;;;;6285907;22;20042;-78
2023/01/06 13:18:45;;;;;;;1.75;0.10;;;11.60;99.90;;;;;;6288516;22;19981;-80